createdAt,value
2018-12-07T00:00:44.323Z,99.99
2018-12-07T00:01:44.320Z,99.99
2018-12-07T00:02:44.321Z,99.99
2018-12-07T00:03:44.319Z,99.99
2018-12-07T00:04:44.305Z,99.99
2018-12-07T00:05:44.048Z,99.99
2018-12-07T00:06:44.048Z,99.99
2018-12-07T00:07:44.294Z,99.99
2018-12-07T00:08:44.292Z,99.99
2018-12-07T00:09:44.284Z,99.99
2018-12-07T00:10:44.290Z,99.99
2018-12-07T00:11:44.287Z,99.99
2018-12-07T00:12:44.279Z,99.99
2018-12-07T00:13:44.276Z,99.99
2018-12-07T00:14:44.024Z,99.99
2018-12-07T00:15:44.262Z,99.99
2018-12-07T00:16:44.013Z,99.99
2018-12-07T00:17:44.006Z,99.99
2018-12-07T00:18:44.251Z,99.99
2018-12-07T00:19:50.481Z,99.99
2018-12-07T00:20:44.246Z,99.99
2018-12-07T00:21:44.007Z,99.99
2018-12-07T00:22:43.992Z,99.99
2018-12-07T00:23:44.246Z,99.99
2018-12-07T00:24:44.086Z,99.99
2018-12-07T00:25:44.237Z,99.99
2018-12-07T00:26:44.240Z,99.99
2018-12-07T00:27:43.998Z,99.99
2018-12-07T00:28:43.997Z,99.99
2018-12-07T00:29:43.992Z,99.99
2018-12-07T00:30:44.223Z,99.99
2018-12-07T00:31:44.219Z,99.99
2018-12-07T00:32:44.210Z,99.99
2018-12-07T00:33:44.205Z,99.99
2018-12-07T00:34:43.961Z,99.99
2018-12-07T00:35:44.001Z,99.99
2018-12-07T00:36:44.202Z,99.99
2018-12-07T00:37:43.966Z,99.99
2018-12-07T00:38:44.197Z,99.99
2018-12-07T00:39:43.958Z,99.99
2018-12-07T00:40:44.198Z,99.99
2018-12-07T00:41:43.960Z,99.99
2018-12-07T00:42:43.956Z,99.99
2018-12-07T00:43:43.926Z,99.99
2018-12-07T00:44:44.178Z,99.99
2018-12-07T00:45:44.167Z,99.99
2018-12-07T00:46:44.160Z,99.99
2018-12-07T00:47:43.917Z,99.99
2018-12-07T00:48:44.170Z,99.99
2018-12-07T00:49:43.921Z,99.99
2018-12-07T00:50:44.156Z,99.99
2018-12-07T00:51:43.913Z,99.99
2018-12-07T00:52:43.919Z,99.99
2018-12-07T00:53:44.151Z,99.99
2018-12-07T00:54:44.134Z,99.99
2018-12-07T00:55:44.145Z,99.99
2018-12-07T00:56:44.126Z,99.99
2018-12-07T00:57:44.132Z,99.99
2018-12-07T00:58:44.125Z,99.99
2018-12-07T00:59:43.886Z,99.99
2018-12-07T01:00:43.891Z,99.99
2018-12-07T01:01:44.118Z,99.99
2018-12-07T01:02:43.875Z,99.99
2018-12-07T01:03:43.861Z,99.99
2018-12-07T01:04:43.863Z,99.99
2018-12-07T01:05:44.097Z,99.99
2018-12-07T01:06:44.100Z,99.99
2018-12-07T01:07:44.094Z,99.99
2018-12-07T01:08:44.117Z,99.99
2018-12-07T01:09:44.092Z,99.99
2018-12-07T01:10:44.085Z,99.99
2018-12-07T01:11:44.095Z,99.99
2018-12-07T01:12:43.835Z,99.99
2018-12-07T01:13:43.829Z,99.99
2018-12-07T01:14:44.068Z,99.99
2018-12-07T01:15:44.095Z,99.99
2018-12-07T01:16:43.906Z,99.99
2018-12-07T01:17:43.833Z,99.99
2018-12-07T01:18:44.064Z,99.99
2018-12-07T01:19:43.814Z,99.99
2018-12-07T01:20:44.050Z,99.99
2018-12-07T01:21:43.803Z,99.99
2018-12-07T01:22:44.046Z,99.99
2018-12-07T01:23:44.047Z,99.99
2018-12-07T01:24:43.801Z,99.99
2018-12-07T01:25:43.797Z,99.99
2018-12-07T01:26:43.790Z,99.99
2018-12-07T01:27:44.036Z,99.99
2018-12-07T01:28:44.040Z,99.99
2018-12-07T01:29:43.776Z,99.99
2018-12-07T01:30:44.024Z,99.99
2018-12-07T01:31:44.022Z,99.99
2018-12-07T01:32:44.017Z,99.99
2018-12-07T01:33:44.014Z,99.99
2018-12-07T01:34:44.029Z,99.99
2018-12-07T01:35:44.015Z,99.99
2018-12-07T01:36:44.002Z,99.99
2018-12-07T01:37:43.760Z,99.99
2018-12-07T01:38:44.006Z,99.99
2018-12-07T01:39:44.023Z,99.99
2018-12-07T01:40:43.994Z,99.99
2018-12-07T01:41:43.752Z,99.99
2018-12-07T01:42:43.991Z,99.99
2018-12-07T01:43:43.978Z,99.99
2018-12-07T01:44:43.977Z,99.99
2018-12-07T01:45:43.725Z,99.99
2018-12-07T01:46:43.721Z,99.99
2018-12-07T01:47:43.798Z,99.99
2018-12-07T01:48:43.968Z,99.99
2018-12-07T01:49:43.971Z,99.99
2018-12-07T01:50:43.719Z,99.99
2018-12-07T01:51:43.962Z,99.99
2018-12-07T01:52:43.709Z,99.99
2018-12-07T01:53:43.951Z,99.99
2018-12-07T01:54:43.944Z,99.99
2018-12-07T01:55:43.943Z,99.99
2018-12-07T01:56:43.718Z,99.99
2018-12-07T01:57:43.941Z,99.99
2018-12-07T01:58:43.950Z,99.99
2018-12-07T01:59:43.928Z,99.99
2018-12-07T02:00:43.945Z,99.99
2018-12-07T02:01:43.680Z,99.99
2018-12-07T02:02:43.924Z,99.99
2018-12-07T02:03:43.679Z,99.99
2018-12-07T02:04:43.679Z,99.99
2018-12-07T02:05:43.916Z,99.99
2018-12-07T02:06:43.912Z,99.99
2018-12-07T02:07:43.911Z,99.99
2018-12-07T02:08:43.901Z,99.99
2018-12-07T02:09:43.658Z,99.99
2018-12-07T02:10:43.906Z,99.99
2018-12-07T02:11:43.907Z,99.99
2018-12-07T02:12:43.650Z,99.99
2018-12-07T02:13:43.903Z,99.99
2018-12-07T02:14:43.638Z,99.99
2018-12-07T02:15:43.633Z,99.99
2018-12-07T02:16:43.885Z,99.99
2018-12-07T02:17:43.624Z,99.99
2018-12-07T02:18:43.631Z,99.99
2018-12-07T02:19:43.620Z,99.99
2018-12-07T02:20:43.641Z,99.99
2018-12-07T02:21:43.617Z,99.99
2018-12-07T02:22:43.615Z,99.99
2018-12-07T02:23:43.854Z,99.99
2018-12-07T02:24:43.608Z,99.99
2018-12-07T02:25:43.850Z,99.99
2018-12-07T02:26:43.864Z,99.99
2018-12-07T02:27:43.613Z,99.99
2018-12-07T02:28:43.845Z,99.99
2018-12-07T02:29:43.839Z,99.99
2018-12-07T02:30:43.837Z,99.99
2018-12-07T02:31:43.586Z,99.99
2018-12-07T02:32:43.830Z,99.99
2018-12-07T02:33:43.830Z,99.99
2018-12-07T02:34:43.829Z,99.99
2018-12-07T02:35:43.850Z,99.99
2018-12-07T02:36:43.827Z,99.99
2018-12-07T02:37:43.833Z,99.99
2018-12-07T02:38:43.564Z,99.99
2018-12-07T02:39:43.840Z,99.99
2018-12-07T02:40:43.802Z,99.99
2018-12-07T02:41:43.798Z,99.99
2018-12-07T02:42:43.805Z,99.99
2018-12-07T02:43:43.550Z,99.99
2018-12-07T02:44:43.797Z,99.99
2018-12-07T02:45:43.545Z,99.99
2018-12-07T02:46:43.790Z,99.99
2018-12-07T02:47:43.788Z,99.99
2018-12-07T02:48:43.618Z,99.99
2018-12-07T02:49:43.778Z,99.99
2018-12-07T02:50:43.798Z,99.99
2018-12-07T02:51:43.532Z,99.99
2018-12-07T02:52:43.792Z,99.99
2018-12-07T02:53:43.774Z,99.99
2018-12-07T02:54:43.523Z,99.99
2018-12-07T02:55:43.510Z,99.99
2018-12-07T02:56:43.843Z,99.99
2018-12-07T02:57:43.521Z,99.99
2018-12-07T02:58:43.756Z,99.99
2018-12-07T02:59:43.758Z,99.99
2018-12-07T03:00:43.509Z,99.99
2018-12-07T03:01:43.772Z,99.99
2018-12-07T03:02:43.747Z,99.99
2018-12-07T03:03:43.781Z,99.99
2018-12-07T03:04:43.480Z,99.99
2018-12-07T03:05:43.733Z,99.99
2018-12-07T03:06:43.738Z,99.99
2018-12-07T03:07:43.727Z,99.99
2018-12-07T03:08:43.735Z,99.99
2018-12-07T03:09:43.725Z,99.99
2018-12-07T03:10:43.728Z,99.99
2018-12-07T03:11:43.715Z,99.99
2018-12-07T03:12:43.733Z,99.99
2018-12-07T03:13:43.708Z,99.99
2018-12-07T03:14:43.700Z,99.99
2018-12-07T03:15:43.701Z,99.99
2018-12-07T03:16:43.704Z,99.99
2018-12-07T03:17:43.514Z,99.99
2018-12-07T03:18:43.440Z,99.99
2018-12-07T03:19:43.685Z,99.99
2018-12-07T03:20:43.685Z,99.99
2018-12-07T03:21:43.431Z,99.99
2018-12-07T03:22:43.673Z,99.99
2018-12-07T03:23:43.699Z,99.99
2018-12-07T03:24:43.421Z,99.99
2018-12-07T03:25:43.764Z,99.99
2018-12-07T03:26:43.668Z,99.99
2018-12-07T03:27:43.665Z,99.99
2018-12-07T03:28:43.409Z,99.99
2018-12-07T03:29:43.407Z,99.99
2018-12-07T03:30:43.666Z,99.99
2018-12-07T03:31:43.663Z,99.99
2018-12-07T03:32:43.732Z,99.99
2018-12-07T03:33:43.653Z,99.99
2018-12-07T03:34:43.649Z,99.99
2018-12-07T03:35:43.645Z,99.99
2018-12-07T03:36:43.634Z,99.99
2018-12-07T03:37:43.379Z,99.99
2018-12-07T03:38:43.625Z,99.99
2018-12-07T03:39:43.632Z,99.99
2018-12-07T03:40:43.388Z,99.99
2018-12-07T03:41:43.616Z,99.99
2018-12-07T03:42:43.620Z,99.99
2018-12-07T03:43:43.613Z,99.99
2018-12-07T03:44:43.608Z,99.99
2018-12-07T03:45:43.603Z,99.99
2018-12-07T03:46:43.604Z,99.99
2018-12-07T03:47:43.603Z,99.99
2018-12-07T03:48:43.613Z,99.99
2018-12-07T03:49:43.609Z,99.99
2018-12-07T03:50:43.588Z,99.99
2018-12-07T03:51:43.599Z,99.99
2018-12-07T03:52:43.594Z,99.99
2018-12-07T03:53:43.355Z,99.99
2018-12-07T03:54:43.581Z,99.99
2018-12-07T03:55:43.589Z,99.99
2018-12-07T03:56:43.593Z,99.99
2018-12-07T03:57:43.588Z,99.99
2018-12-07T03:58:43.572Z,99.99
2018-12-07T03:59:43.330Z,99.99
2018-12-07T04:00:43.321Z,99.99
2018-12-07T04:01:43.309Z,99.99
2018-12-07T04:02:43.568Z,99.99
2018-12-07T04:03:44.331Z,99.99
2018-12-07T04:04:43.555Z,99.99
2018-12-07T04:05:43.310Z,99.99
2018-12-07T04:06:43.545Z,99.99
2018-12-07T04:07:43.305Z,99.99
2018-12-07T04:08:43.298Z,99.99
2018-12-07T04:09:43.534Z,99.99
2018-12-07T04:10:43.287Z,99.99
2018-12-07T04:11:43.310Z,99.99
2018-12-07T04:12:43.281Z,99.99
2018-12-07T04:13:43.523Z,99.99
2018-12-07T04:14:43.284Z,99.99
2018-12-07T04:15:43.519Z,99.99
2018-12-07T04:16:43.288Z,99.99
2018-12-07T04:17:43.512Z,99.99
2018-12-07T04:18:43.505Z,99.99
2018-12-07T04:19:43.272Z,99.99
2018-12-07T04:20:43.263Z,99.99
2018-12-07T04:21:43.524Z,99.99
2018-12-07T04:22:43.249Z,99.99
2018-12-07T04:23:43.499Z,99.99
2018-12-07T04:24:43.493Z,99.99
2018-12-07T04:25:43.484Z,99.99
2018-12-07T04:26:43.514Z,99.99
2018-12-07T04:27:43.483Z,99.99
2018-12-07T04:28:43.486Z,99.99
2018-12-07T04:29:43.241Z,99.99
2018-12-07T04:30:43.243Z,99.99
2018-12-07T04:31:43.463Z,99.99
2018-12-07T04:32:43.467Z,99.99
2018-12-07T04:33:43.469Z,99.99
2018-12-07T04:34:43.210Z,99.99
2018-12-07T04:35:43.462Z,99.99
2018-12-07T04:36:43.511Z,99.99
2018-12-07T04:37:43.454Z,99.99
2018-12-07T04:38:44.259Z,99.99
2018-12-07T04:39:43.208Z,99.99
2018-12-07T04:40:43.436Z,99.99
2018-12-07T04:41:43.437Z,99.99
2018-12-07T04:42:43.194Z,99.99
2018-12-07T04:43:43.433Z,99.99
2018-12-07T04:44:43.183Z,99.99
2018-12-07T04:45:43.442Z,99.99
2018-12-07T04:46:43.434Z,99.99
2018-12-07T04:47:43.433Z,99.99
2018-12-07T04:48:43.414Z,99.99
2018-12-07T04:49:43.164Z,99.99
2018-12-07T04:50:43.412Z,99.99
2018-12-07T04:51:43.159Z,99.99
2018-12-07T04:52:43.408Z,99.99
2018-12-07T04:53:43.409Z,99.99
2018-12-07T04:54:43.405Z,99.99
2018-12-07T04:55:43.404Z,99.99
2018-12-07T04:56:43.159Z,99.99
2018-12-07T04:57:43.157Z,99.99
2018-12-07T04:58:43.418Z,99.99
2018-12-07T04:59:43.383Z,99.99
2018-12-07T05:00:43.128Z,99.99
2018-12-07T05:01:43.411Z,99.99
2018-12-07T05:02:43.386Z,99.99
2018-12-07T05:03:43.380Z,99.99
2018-12-07T05:04:43.377Z,99.99
2018-12-07T05:05:43.366Z,99.99
2018-12-07T05:06:43.378Z,99.99
2018-12-07T05:07:43.383Z,99.99
2018-12-07T05:08:43.106Z,99.99
2018-12-07T05:09:43.114Z,99.99
2018-12-07T05:10:43.356Z,99.99
2018-12-07T05:11:43.362Z,99.99
2018-12-07T05:12:43.375Z,99.99
2018-12-07T05:13:43.091Z,99.99
2018-12-07T05:14:43.335Z,99.99
2018-12-07T05:15:43.333Z,99.99
2018-12-07T05:16:43.336Z,99.99
2018-12-07T05:17:43.344Z,99.99
2018-12-07T05:18:43.335Z,99.99
2018-12-07T05:19:43.342Z,99.99
2018-12-07T05:20:43.338Z,99.99
2018-12-07T05:21:43.326Z,99.99
2018-12-07T05:22:43.329Z,99.99
2018-12-07T05:23:43.066Z,99.99
2018-12-07T05:24:43.311Z,99.99
2018-12-07T05:25:43.307Z,99.99
2018-12-07T05:26:43.306Z,99.99
2018-12-07T05:27:43.311Z,99.99
2018-12-07T05:28:43.054Z,99.99
2018-12-07T05:29:43.293Z,99.99
2018-12-07T05:30:43.289Z,99.99
2018-12-07T05:31:43.040Z,99.99
2018-12-07T05:32:43.283Z,99.99
2018-12-07T05:33:43.302Z,99.99
2018-12-07T05:34:43.303Z,99.99
2018-12-07T05:35:43.036Z,99.99
2018-12-07T05:36:43.280Z,99.99
2018-12-07T05:37:43.024Z,99.99
2018-12-07T05:38:43.343Z,99.99
2018-12-07T05:39:43.264Z,99.99
2018-12-07T05:40:43.260Z,99.99
2018-12-07T05:41:43.260Z,99.99
2018-12-07T05:42:43.278Z,99.99
2018-12-07T05:43:43.266Z,99.99
2018-12-07T05:44:43.244Z,99.99
2018-12-07T05:45:43.249Z,99.99
2018-12-07T05:46:43.248Z,99.99
2018-12-07T05:47:43.251Z,99.99
2018-12-07T05:48:43.235Z,99.99
2018-12-07T05:49:43.228Z,99.99
2018-12-07T05:50:43.242Z,99.99
2018-12-07T05:51:43.236Z,99.99
2018-12-07T05:52:43.228Z,99.99
2018-12-07T05:53:43.284Z,99.99
2018-12-07T05:54:43.292Z,99.99
2018-12-07T05:55:43.219Z,99.99
2018-12-07T05:56:43.211Z,99.99
2018-12-07T05:57:43.214Z,99.99
2018-12-07T05:58:43.210Z,99.99
2018-12-07T05:59:42.956Z,99.99
2018-12-07T06:00:43.196Z,99.99
2018-12-07T06:01:43.203Z,99.99
2018-12-07T06:02:42.955Z,99.99
2018-12-07T06:03:43.193Z,99.99
2018-12-07T06:04:42.950Z,99.99
2018-12-07T06:05:43.196Z,99.99
2018-12-07T06:06:43.189Z,99.99
2018-12-07T06:07:43.195Z,99.99
2018-12-07T06:08:43.177Z,99.99
2018-12-07T06:09:43.172Z,99.99
2018-12-07T06:10:43.167Z,99.99
2018-12-07T06:11:43.160Z,99.99
2018-12-07T06:12:43.176Z,99.99
2018-12-07T06:13:43.171Z,99.99
2018-12-07T06:14:43.168Z,99.99
2018-12-07T06:15:43.176Z,99.99
2018-12-07T06:16:42.902Z,99.99
2018-12-07T06:17:42.901Z,99.99
2018-12-07T06:18:43.153Z,99.99
2018-12-07T06:19:43.149Z,99.99
2018-12-07T06:20:42.903Z,99.99
2018-12-07T06:21:43.139Z,99.99
2018-12-07T06:22:42.908Z,99.99
2018-12-07T06:23:43.133Z,99.99
2018-12-07T06:24:43.130Z,99.99
2018-12-07T06:25:43.135Z,99.99
2018-12-07T06:26:43.181Z,99.99
2018-12-07T06:27:43.191Z,99.99
2018-12-07T06:28:43.118Z,99.99
2018-12-07T06:29:42.877Z,99.99
2018-12-07T06:30:43.112Z,99.99
2018-12-07T06:31:42.873Z,99.99
2018-12-07T06:32:43.100Z,99.99
2018-12-07T06:33:43.106Z,99.99
2018-12-07T06:34:43.123Z,99.99
2018-12-07T06:35:43.103Z,99.99
2018-12-07T06:36:43.096Z,99.99
2018-12-07T06:37:43.087Z,99.99
2018-12-07T06:38:42.861Z,99.99
2018-12-07T06:39:43.084Z,99.99
2018-12-07T06:40:43.093Z,99.99
2018-12-07T06:41:43.086Z,99.99
2018-12-07T06:42:43.077Z,99.99
2018-12-07T06:43:42.832Z,99.99
2018-12-07T06:44:43.074Z,99.99
2018-12-07T06:45:43.075Z,99.99
2018-12-07T06:46:42.823Z,99.99
2018-12-07T06:47:42.829Z,99.99
2018-12-07T06:48:42.824Z,99.99
2018-12-07T06:49:43.058Z,99.99
2018-12-07T06:50:43.064Z,99.99
2018-12-07T06:51:43.070Z,99.99
2018-12-07T06:52:43.049Z,99.99
2018-12-07T06:53:42.807Z,99.99
2018-12-07T06:54:43.052Z,99.99
2018-12-07T06:55:43.046Z,99.99
2018-12-07T06:56:43.043Z,99.99
2018-12-07T06:57:43.052Z,99.99
2018-12-07T06:58:42.886Z,99.99
2018-12-07T06:59:42.787Z,99.99
2018-12-07T07:00:43.065Z,99.99
2018-12-07T07:01:43.040Z,99.99
2018-12-07T07:02:42.777Z,99.99
2018-12-07T07:03:43.039Z,99.99
2018-12-07T07:04:43.125Z,99.99
2018-12-07T07:05:43.012Z,99.99
2018-12-07T07:06:43.009Z,99.99
2018-12-07T07:07:43.020Z,99.99
2018-12-07T07:08:43.017Z,99.99
2018-12-07T07:09:42.761Z,99.99
2018-12-07T07:10:43.005Z,99.99
2018-12-07T07:11:43.014Z,99.99
2018-12-07T07:12:42.750Z,99.99
2018-12-07T07:13:42.996Z,99.99
2018-12-07T07:14:42.987Z,99.99
2018-12-07T07:15:42.737Z,99.99
2018-12-07T07:16:42.740Z,99.99
2018-12-07T07:17:42.988Z,99.99
2018-12-07T07:18:42.982Z,99.99
2018-12-07T07:19:42.974Z,99.99
2018-12-07T07:20:42.973Z,99.99
2018-12-07T07:21:42.722Z,99.99
2018-12-07T07:22:42.970Z,99.99
2018-12-07T07:23:44.782Z,99.99
2018-12-07T07:24:42.962Z,99.99
2018-12-07T07:25:42.956Z,99.99
2018-12-07T07:26:42.708Z,99.99
2018-12-07T07:27:42.706Z,99.99
2018-12-07T07:28:42.944Z,99.99
2018-12-07T07:29:42.698Z,99.99
2018-12-07T07:30:42.716Z,99.99
2018-12-07T07:31:46.033Z,99.99
2018-12-07T07:32:42.936Z,99.99
2018-12-07T07:33:42.939Z,99.99
2018-12-07T07:34:42.923Z,99.99
2018-12-07T07:35:42.684Z,99.99
2018-12-07T07:36:42.924Z,99.99
2018-12-07T07:37:42.913Z,99.99
2018-12-07T07:38:42.665Z,99.99
2018-12-07T07:39:42.920Z,99.99
2018-12-07T07:40:42.940Z,99.99
2018-12-07T07:41:42.928Z,99.99
2018-12-07T07:42:42.906Z,99.99
2018-12-07T07:43:42.931Z,99.99
2018-12-07T07:44:42.907Z,99.99
2018-12-07T07:45:42.645Z,99.99
2018-12-07T07:46:42.643Z,99.99
2018-12-07T07:47:42.891Z,99.99
2018-12-07T07:48:42.887Z,99.99
2018-12-07T07:49:42.794Z,99.99
2018-12-07T07:50:42.645Z,99.99
2018-12-07T07:51:42.882Z,99.99
2018-12-07T07:52:42.636Z,99.99
2018-12-07T07:53:42.630Z,99.99
2018-12-07T07:54:42.873Z,99.99
2018-12-07T07:55:42.864Z,99.99
2018-12-07T07:56:42.874Z,99.99
2018-12-07T07:57:42.626Z,99.99
2018-12-07T07:58:42.620Z,99.99
2018-12-07T07:59:42.683Z,99.99
2018-12-07T08:00:42.614Z,99.99
2018-12-07T08:01:42.854Z,99.99
2018-12-07T08:02:42.602Z,99.99
2018-12-07T08:03:42.851Z,99.99
2018-12-07T08:04:42.602Z,99.99
2018-12-07T08:05:42.595Z,99.99
2018-12-07T08:06:42.855Z,99.99
2018-12-07T08:07:42.597Z,99.99
2018-12-07T08:08:42.836Z,99.99
2018-12-07T08:09:42.594Z,99.99
2018-12-07T08:10:42.839Z,99.99
2018-12-07T08:11:42.860Z,99.99
2018-12-07T08:12:42.580Z,99.99
2018-12-07T08:13:42.596Z,99.99
2018-12-07T08:14:42.813Z,99.99
2018-12-07T08:15:42.572Z,99.99
2018-12-07T08:16:42.566Z,99.99
2018-12-07T08:17:42.574Z,99.99
2018-12-07T08:18:42.558Z,99.99
2018-12-07T08:19:42.810Z,99.99
2018-12-07T08:20:42.579Z,99.99
2018-12-07T08:21:42.801Z,99.99
2018-12-07T08:22:42.554Z,99.99
2018-12-07T08:23:42.794Z,99.99
2018-12-07T08:24:42.804Z,99.99
2018-12-07T08:25:42.795Z,99.99
2018-12-07T08:26:42.789Z,99.99
2018-12-07T08:27:42.538Z,99.99
2018-12-07T08:28:42.789Z,99.99
2018-12-07T08:29:42.546Z,99.99
2018-12-07T08:30:42.525Z,99.99
2018-12-07T08:31:42.768Z,99.99
2018-12-07T08:32:42.784Z,99.99
2018-12-07T08:33:42.764Z,99.99
2018-12-07T08:34:42.530Z,99.99
2018-12-07T08:35:42.759Z,99.99
2018-12-07T08:36:42.511Z,99.99
2018-12-07T08:37:42.765Z,99.8
2018-12-07T08:38:42.498Z,99.52
2018-12-07T08:39:42.748Z,99.62
2018-12-07T08:40:42.497Z,99.71
2018-12-07T08:41:42.506Z,98.66
2018-12-07T08:42:42.748Z,98.18
2018-12-07T08:43:42.487Z,98.08
2018-12-07T08:44:42.733Z,97.71
2018-12-07T08:45:42.481Z,96.37
2018-12-07T08:46:42.479Z,95.98
2018-12-07T08:47:42.476Z,94.27
2018-12-07T08:48:42.472Z,94.46
2018-12-07T08:49:42.726Z,94.93
2018-12-07T08:50:42.476Z,93.98
2018-12-07T08:51:42.717Z,94.07
2018-12-07T08:52:42.718Z,93.45
2018-12-07T08:53:42.470Z,92.59
2018-12-07T08:54:42.711Z,92.21
2018-12-07T08:55:42.465Z,92.02
2018-12-07T08:56:42.452Z,92.02
2018-12-07T08:57:42.709Z,92.3
2018-12-07T08:58:42.447Z,92.02
2018-12-07T08:59:42.450Z,92.21
2018-12-07T09:00:42.443Z,92.3
2018-12-07T09:01:42.701Z,91.16
2018-12-07T09:02:42.698Z,90.59
2018-12-07T09:03:42.705Z,90.39
2018-12-07T09:04:42.438Z,89.63
2018-12-07T09:05:42.688Z,89.06
2018-12-07T09:06:42.428Z,89.25
2018-12-07T09:07:42.429Z,88.39
2018-12-07T09:08:42.428Z,88.1
2018-12-07T09:09:42.676Z,88.2
2018-12-07T09:10:42.675Z,87.82
2018-12-07T09:11:42.670Z,87.62
2018-12-07T09:12:42.659Z,88.68
2018-12-07T09:13:42.652Z,88.58
2018-12-07T09:14:42.408Z,88.34
2018-12-07T09:15:42.422Z,88.34
2018-12-07T09:16:42.661Z,88.72
2018-12-07T09:17:42.405Z,87.48
2018-12-07T09:18:42.648Z,88.15
2018-12-07T09:19:42.691Z,87.38
2018-12-07T09:20:42.408Z,87
2018-12-07T09:21:42.641Z,86.33
2018-12-07T09:22:42.653Z,85.85
2018-12-07T09:23:49.343Z,85.47
2018-12-07T09:24:42.410Z,86.04
2018-12-07T09:25:42.720Z,87.19
2018-12-07T09:26:42.633Z,87.09
2018-12-07T09:27:42.637Z,86.14
2018-12-07T09:28:42.385Z,85.94
2018-12-07T09:29:42.639Z,86.8
2018-12-07T09:30:43.696Z,86
2018-12-07T09:31:42.624Z,86.1
2018-12-07T09:32:42.617Z,86.67
2018-12-07T09:33:42.629Z,86.57
2018-12-07T09:34:42.614Z,86.47
2018-12-07T09:35:42.612Z,87.34
2018-12-07T09:36:42.362Z,86.57
2018-12-07T09:37:42.626Z,86.67
2018-12-07T09:38:42.607Z,86.86
2018-12-07T09:39:42.620Z,87.24
2018-12-07T09:40:42.636Z,87.24
2018-12-07T09:41:42.419Z,87.24
2018-12-07T09:42:42.609Z,86.96
2018-12-07T09:43:42.348Z,86.76
2018-12-07T09:44:42.346Z,86.96
2018-12-07T09:45:42.599Z,86.57
2018-12-07T09:46:42.367Z,86.71
2018-12-07T09:47:42.584Z,86.57
2018-12-07T09:48:42.598Z,86.86
2018-12-07T09:49:42.336Z,86.8
2018-12-07T09:50:42.334Z,86.67
2018-12-07T09:51:42.576Z,86.86
2018-12-07T09:52:42.330Z,86.9
2018-12-07T09:53:42.580Z,86.47
2018-12-07T09:54:42.572Z,86.86
2018-12-07T09:55:42.321Z,86.86
2018-12-07T09:56:42.573Z,86.57
2018-12-07T09:57:42.323Z,87.34
2018-12-07T09:58:42.563Z,86.86
2018-12-07T09:59:42.320Z,87.05
2018-12-07T10:00:42.556Z,86.96
2018-12-07T10:01:42.564Z,87.05
2018-12-07T10:02:42.557Z,86.86
2018-12-07T10:03:42.644Z,87.05
2018-12-07T10:04:42.306Z,87.05
2018-12-07T10:05:42.559Z,87.15
2018-12-07T10:06:42.304Z,87.34
2018-12-07T10:07:42.562Z,86.86
2018-12-07T10:08:42.573Z,87.34
2018-12-07T10:09:42.561Z,86.76
2018-12-07T10:10:42.572Z,86.76
2018-12-07T10:11:42.541Z,87.43
2018-12-07T10:12:42.531Z,88.01
2018-12-07T10:13:42.292Z,87.82
2018-12-07T10:14:42.527Z,88.2
2018-12-07T10:15:42.527Z,87.62
2018-12-07T10:16:42.282Z,86.86
2018-12-07T10:17:42.533Z,87.34
2018-12-07T10:18:42.520Z,87.53
2018-12-07T10:19:42.510Z,86.96
2018-12-07T10:20:42.254Z,87.15
2018-12-07T10:21:42.592Z,87.53
2018-12-07T10:22:42.252Z,87.24
2018-12-07T10:23:42.266Z,86.76
2018-12-07T10:24:42.489Z,86.86
2018-12-07T10:25:42.257Z,86.86
2018-12-07T10:26:42.284Z,86.96
2018-12-07T10:27:42.260Z,86.76
2018-12-07T10:28:42.484Z,86.96
2018-12-07T10:29:42.235Z,87.24
2018-12-07T10:30:42.243Z,87.34
2018-12-07T10:31:42.488Z,87.62
2018-12-07T10:32:42.483Z,86.67
2018-12-07T10:33:42.487Z,86.67
2018-12-07T10:34:42.494Z,86.67
2018-12-07T10:35:42.487Z,87.05
2018-12-07T10:36:42.252Z,86.96
2018-12-07T10:37:42.485Z,86.76
2018-12-07T10:38:42.224Z,86.86
2018-12-07T10:39:42.220Z,87.05
2018-12-07T10:40:42.483Z,86.47
2018-12-07T10:41:42.476Z,86.57
2018-12-07T10:42:42.464Z,87.24
2018-12-07T10:43:42.461Z,86.67
2018-12-07T10:44:42.499Z,86.47
2018-12-07T10:45:42.456Z,86.47
2018-12-07T10:46:42.472Z,86.96
2018-12-07T10:47:42.231Z,86.38
2018-12-07T10:48:42.206Z,85.81
2018-12-07T10:49:42.458Z,86
2018-12-07T10:50:42.443Z,86.57
2018-12-07T10:51:42.447Z,86.86
2018-12-07T10:52:42.206Z,86.57
2018-12-07T10:53:42.437Z,87.62
2018-12-07T10:54:42.187Z,86.86
2018-12-07T10:55:42.433Z,86.47
2018-12-07T10:56:42.435Z,86.57
2018-12-07T10:57:42.458Z,86
2018-12-07T10:58:42.420Z,85.42
2018-12-07T10:59:42.442Z,86.47
2018-12-07T11:00:42.179Z,86.76
2018-12-07T11:01:42.169Z,86.47
2018-12-07T11:02:42.424Z,86.47
2018-12-07T11:03:42.423Z,86.04
2018-12-07T11:04:42.172Z,86.04
2018-12-07T11:05:42.174Z,86.14
2018-12-07T11:06:42.411Z,85.66
2018-12-07T11:07:42.396Z,85.47
2018-12-07T11:08:42.404Z,85.57
2018-12-07T11:09:42.165Z,85.38
2018-12-07T11:10:42.150Z,86.43
2018-12-07T11:11:42.403Z,86.61
2018-12-07T11:12:42.411Z,86.43
2018-12-07T11:13:42.392Z,85.75
2018-12-07T11:14:42.142Z,85.85
2018-12-07T11:15:42.386Z,85.47
2018-12-07T11:16:42.386Z,85.47
2018-12-07T11:17:42.136Z,85.38
2018-12-07T11:18:42.380Z,84.61
2018-12-07T11:19:42.384Z,83.84
2018-12-07T11:20:42.134Z,83.46
2018-12-07T11:21:42.383Z,83.5
2018-12-07T11:22:42.152Z,84.52
2018-12-07T11:23:42.378Z,83.89
2018-12-07T11:24:42.378Z,84.08
2018-12-07T11:25:42.379Z,83.75
2018-12-07T11:26:42.371Z,83.22
2018-12-07T11:27:42.378Z,83.31
2018-12-07T11:28:42.122Z,83.46
2018-12-07T11:29:42.359Z,83.56
2018-12-07T11:30:42.383Z,84.03
2018-12-07T11:31:42.360Z,84.03
2018-12-07T11:32:42.369Z,84.61
2018-12-07T11:33:42.354Z,84.61
2018-12-07T11:34:42.353Z,83.94
2018-12-07T11:35:42.361Z,83.46
2018-12-07T11:36:42.360Z,83.46
2018-12-07T11:37:42.096Z,83.94
2018-12-07T11:38:42.369Z,84.32
2018-12-07T11:39:42.350Z,83.65
2018-12-07T11:40:42.407Z,83.75
2018-12-07T11:41:42.086Z,83.94
2018-12-07T11:42:42.337Z,83.94
2018-12-07T11:43:42.107Z,83.84
2018-12-07T11:44:42.100Z,84.13
2018-12-07T11:45:42.336Z,83.37
2018-12-07T11:46:42.089Z,83.56
2018-12-07T11:47:42.338Z,83.37
2018-12-07T11:48:42.325Z,83.46
2018-12-07T11:49:42.331Z,83.94
2018-12-07T11:50:42.324Z,83.46
2018-12-07T11:51:42.087Z,83.37
2018-12-07T11:52:42.318Z,83.46
2018-12-07T11:53:42.340Z,83.46
2018-12-07T11:54:42.082Z,82.6
2018-12-07T11:55:42.334Z,82.89
2018-12-07T11:56:42.321Z,81.65
2018-12-07T11:57:42.312Z,81.36
2018-12-07T11:58:42.308Z,82.03
2018-12-07T11:59:42.086Z,81.74
2018-12-07T12:00:42.309Z,82.03
2018-12-07T12:01:46.991Z,81.26
2018-12-07T12:02:42.060Z,81.65
2018-12-07T12:03:42.307Z,81.36
2018-12-07T12:04:42.320Z,81.93
2018-12-07T12:05:42.055Z,81.55
2018-12-07T12:06:42.315Z,80.88
2018-12-07T12:07:42.400Z,81.07
2018-12-07T12:08:42.292Z,81.16
2018-12-07T12:09:42.040Z,81.16
2018-12-07T12:10:42.043Z,80.79
2018-12-07T12:11:42.047Z,80.06
2018-12-07T12:12:42.291Z,80.35
2018-12-07T12:13:42.285Z,80.54
2018-12-07T12:14:42.041Z,80.4
2018-12-07T12:15:42.285Z,79.87
2018-12-07T12:16:42.288Z,80.92
2018-12-07T12:17:42.281Z,81.49
2018-12-07T12:18:42.046Z,82.03
2018-12-07T12:19:42.033Z,81.45
2018-12-07T12:20:42.271Z,80.69
2018-12-07T12:21:42.264Z,81.65
2018-12-07T12:22:42.270Z,82.03
2018-12-07T12:23:42.264Z,82.03
2018-12-07T12:24:42.279Z,81.36
2018-12-07T12:25:42.268Z,81.26
2018-12-07T12:26:42.019Z,81.45
2018-12-07T12:27:42.010Z,81.36
2018-12-07T12:28:42.268Z,81.93
2018-12-07T12:29:42.013Z,81.84
2018-12-07T12:30:42.253Z,80.98
2018-12-07T12:31:42.262Z,80.79
2018-12-07T12:32:42.004Z,81.16
2018-12-07T12:33:41.998Z,81.65
2018-12-07T12:34:41.993Z,81.74
2018-12-07T12:35:41.999Z,81.84
2018-12-07T12:36:41.996Z,81.93
2018-12-07T12:37:42.262Z,81.84
2018-12-07T12:38:42.235Z,81.36
2018-12-07T12:39:42.237Z,80.98
2018-12-07T12:40:42.235Z,80.69
2018-12-07T12:41:49.064Z,81.26
2018-12-07T12:42:42.232Z,81.26
2018-12-07T12:43:42.224Z,81.07
2018-12-07T12:44:41.976Z,80.5
2018-12-07T12:45:41.973Z,81.07
2018-12-07T12:46:42.242Z,80.59
2018-12-07T12:47:42.216Z,80.5
2018-12-07T12:48:42.218Z,80.02
2018-12-07T12:49:42.215Z,80.98
2018-12-07T12:50:42.215Z,80.21
2018-12-07T12:51:41.963Z,80.88
2018-12-07T12:52:41.968Z,80.98
2018-12-07T12:53:42.217Z,81.65